createdAt,value
2019-02-04T00:00:39.294Z,0
2019-02-04T00:01:49.001Z,0
2019-02-04T00:02:58.469Z,0
2019-02-04T00:04:08.447Z,0
2019-02-04T00:05:17.888Z,0
2019-02-04T00:06:27.728Z,0
2019-02-04T00:07:37.706Z,0
2019-02-04T00:08:47.211Z,0
2019-02-04T00:09:56.654Z,0
2019-02-04T00:11:06.405Z,0
2019-02-04T00:12:16.378Z,0
2019-02-04T00:13:26.077Z,0
2019-02-04T00:14:35.804Z,0
2019-02-04T00:15:45.775Z,0
2019-02-04T00:16:55.236Z,0
2019-02-04T00:18:04.940Z,0
2019-02-04T00:19:14.886Z,0
2019-02-04T00:20:24.345Z,0
2019-02-04T00:21:34.049Z,0
2019-02-04T00:22:43.507Z,0
2019-02-04T00:23:53.208Z,0
2019-02-04T00:25:02.973Z,0
2019-02-04T00:26:12.927Z,0
2019-02-04T00:27:22.643Z,0
2019-02-04T00:28:32.614Z,0
2019-02-04T00:29:42.092Z,0
2019-02-04T00:30:51.794Z,0
2019-02-04T00:32:01.504Z,0
2019-02-04T00:33:10.951Z,0
2019-02-04T00:34:20.645Z,0
2019-02-04T00:35:30.343Z,0
2019-02-04T00:36:40.301Z,0
2019-02-04T00:37:50.273Z,0
2019-02-04T00:39:02.387Z,0
2019-02-04T00:40:12.335Z,0
2019-02-04T00:41:21.799Z,0
2019-02-04T00:42:31.629Z,0
2019-02-04T00:43:41.669Z,0
2019-02-04T00:44:51.838Z,0
2019-02-04T00:46:02.142Z,0
2019-02-04T00:47:12.604Z,0
2019-02-04T00:48:23.105Z,0
2019-02-04T00:49:33.570Z,0
2019-02-04T00:50:44.348Z,0
2019-02-04T00:51:54.587Z,0
2019-02-04T00:53:04.914Z,0
2019-02-04T00:54:14.989Z,0
2019-02-04T00:55:24.951Z,0
2019-02-04T00:56:34.657Z,0
2019-02-04T00:57:44.609Z,0
2019-02-04T00:58:54.551Z,0
2019-02-04T01:00:04.021Z,0
2019-02-04T01:01:13.726Z,0
2019-02-04T01:02:23.415Z,0
2019-02-04T01:03:32.858Z,0
2019-02-04T01:04:42.066Z,0
2019-02-04T01:05:51.502Z,0
2019-02-04T01:07:01.459Z,0
2019-02-04T01:08:11.163Z,0
2019-02-04T01:09:22.327Z,0
2019-02-04T01:10:31.543Z,0
2019-02-04T01:11:41.049Z,0
2019-02-04T01:12:50.505Z,0
2019-02-04T01:14:00.453Z,0
2019-02-04T01:15:09.653Z,0
2019-02-04T01:16:19.366Z,0
2019-02-04T01:17:29.078Z,0
2019-02-04T01:18:38.547Z,0
2019-02-04T01:19:47.765Z,0
2019-02-04T01:20:57.465Z,0
2019-02-04T01:22:07.176Z,0
2019-02-04T01:23:16.900Z,0
2019-02-04T01:24:26.704Z,0
2019-02-04T01:25:36.666Z,0
2019-02-04T01:26:46.641Z,0
2019-02-04T01:27:56.099Z,0
2019-02-04T01:29:05.793Z,0
2019-02-04T01:30:15.251Z,0
2019-02-04T01:31:24.969Z,0
2019-02-04T01:32:34.693Z,0
2019-02-04T01:33:44.410Z,0
2019-02-04T01:34:55.956Z,0
2019-02-04T01:36:05.919Z,0
2019-02-04T01:37:15.707Z,0
2019-02-04T01:38:25.407Z,0
2019-02-04T01:39:35.368Z,0
2019-02-04T01:40:44.943Z,0
2019-02-04T01:41:54.891Z,0
2019-02-04T01:43:04.595Z,0
2019-02-04T01:44:14.327Z,0
2019-02-04T01:45:24.372Z,0
2019-02-04T01:46:34.326Z,0
2019-02-04T01:47:44.288Z,0
2019-02-04T01:48:54.262Z,0
2019-02-04T01:50:04.217Z,0
2019-02-04T01:51:14.466Z,0
2019-02-04T01:52:24.812Z,0
2019-02-04T01:53:34.926Z,0
2019-02-04T01:54:45.819Z,0
2019-02-04T01:55:57.338Z,0
2019-02-04T01:57:07.448Z,0
2019-02-04T01:58:17.473Z,0
2019-02-04T01:59:27.731Z,0
2019-02-04T02:00:37.907Z,0
2019-02-04T02:01:47.618Z,0
2019-02-04T02:02:57.073Z,0
2019-02-04T02:04:07.026Z,0
2019-02-04T02:05:16.982Z,0
2019-02-04T02:06:26.717Z,0
2019-02-04T02:07:36.662Z,0
2019-02-04T02:08:46.112Z,0
2019-02-04T02:09:55.586Z,0
2019-02-04T02:11:05.639Z,0
2019-02-04T02:12:15.341Z,0
2019-02-04T02:13:25.097Z,0
2019-02-04T02:14:34.807Z,0
2019-02-04T02:15:44.522Z,0
2019-02-04T02:16:54.235Z,0
2019-02-04T02:18:03.956Z,0
2019-02-04T02:19:13.660Z,0
2019-02-04T02:20:23.503Z,0
2019-02-04T02:21:32.744Z,0
2019-02-04T02:22:42.496Z,0
2019-02-04T02:23:52.200Z,0
2019-02-04T02:25:01.904Z,0
2019-02-04T02:26:11.865Z,0
2019-02-04T02:27:21.817Z,0
2019-02-04T02:28:31.776Z,0
2019-02-04T02:29:41.250Z,0
2019-02-04T02:30:51.198Z,0
2019-02-04T02:32:00.702Z,0
2019-02-04T02:33:10.696Z,0
2019-02-04T02:34:20.659Z,0
2019-02-04T02:35:30.368Z,0
2019-02-04T02:36:39.576Z,0
2019-02-04T02:37:49.297Z,0
2019-02-04T02:38:59.250Z,0
2019-02-04T02:40:08.214Z,0
2019-02-04T02:41:18.178Z,0
2019-02-04T02:42:28.139Z,0
2019-02-04T02:43:37.592Z,0
2019-02-04T02:44:46.832Z,0
2019-02-04T02:45:56.533Z,0
2019-02-04T02:47:06.231Z,0
2019-02-04T02:48:15.932Z,0
2019-02-04T02:49:25.662Z,0
2019-02-04T02:50:35.693Z,0
2019-02-04T02:51:45.402Z,0
2019-02-04T02:52:55.247Z,0
2019-02-04T02:54:04.703Z,0
2019-02-04T02:55:14.286Z,0
2019-02-04T02:56:24.009Z,0
2019-02-04T02:57:33.725Z,0
2019-02-04T02:58:43.682Z,0
2019-02-04T02:59:53.372Z,0
2019-02-04T03:01:03.082Z,0
2019-02-04T03:02:12.800Z,0
2019-02-04T03:03:22.748Z,0
2019-02-04T03:04:32.464Z,0
2019-02-04T03:05:42.298Z,0
2019-02-04T03:06:52.402Z,0
2019-02-04T03:08:03.259Z,0
2019-02-04T03:09:14.087Z,0
2019-02-04T03:10:24.875Z,0
2019-02-04T03:11:35.250Z,0
2019-02-04T03:12:45.493Z,0
2019-02-04T03:13:55.678Z,0
2019-02-04T03:15:05.630Z,0
2019-02-04T03:16:14.841Z,0
2019-02-04T03:17:24.793Z,0
2019-02-04T03:18:34.858Z,0
2019-02-04T03:19:44.813Z,0
2019-02-04T03:20:54.273Z,0
2019-02-04T03:22:03.966Z,0
2019-02-04T03:23:13.685Z,0
2019-02-04T03:24:23.652Z,0
2019-02-04T03:25:33.733Z,0
2019-02-04T03:26:43.443Z,0
2019-02-04T03:27:52.645Z,0
2019-02-04T03:29:02.602Z,0
2019-02-04T03:30:12.333Z,0
2019-02-04T03:31:22.298Z,0
2019-02-04T03:32:32.298Z,0
2019-02-04T03:33:42.588Z,0
2019-02-04T03:34:52.065Z,0
2019-02-04T03:36:01.776Z,0
2019-02-04T03:37:11.469Z,0
2019-02-04T03:38:21.438Z,0
2019-02-04T03:39:30.887Z,0
2019-02-04T03:40:40.329Z,0
2019-02-04T03:41:50.279Z,0
2019-02-04T03:43:00.052Z,0
2019-02-04T03:44:09.764Z,0
2019-02-04T03:45:19.228Z,0
2019-02-04T03:46:28.982Z,0
2019-02-04T03:47:38.928Z,0
2019-02-04T03:48:48.902Z,0
2019-02-04T03:49:58.616Z,0
2019-02-04T03:51:08.574Z,0
2019-02-04T03:52:18.035Z,0
2019-02-04T03:53:27.235Z,0
2019-02-04T03:54:37.174Z,0
2019-02-04T03:55:47.233Z,0
2019-02-04T03:56:57.200Z,0
2019-02-04T03:58:06.678Z,0
2019-02-04T03:59:16.513Z,0
2019-02-04T04:00:25.721Z,0
2019-02-04T04:01:35.685Z,0
2019-02-04T04:02:45.153Z,0
2019-02-04T04:03:54.632Z,0
2019-02-04T04:05:04.407Z,0
2019-02-04T04:06:14.113Z,0
2019-02-04T04:07:23.565Z,0
2019-02-04T04:08:33.531Z,0
2019-02-04T04:09:43.286Z,0
2019-02-04T04:10:53.254Z,0
2019-02-04T04:12:03.035Z,0
2019-02-04T04:13:13.506Z,0
2019-02-04T04:14:24.193Z,0
2019-02-04T04:15:35.197Z,0
2019-02-04T04:16:46.360Z,0
2019-02-04T04:17:56.713Z,0
2019-02-04T04:19:06.254Z,0
2019-02-04T04:20:16.199Z,0
2019-02-04T04:21:26.344Z,0
2019-02-04T04:22:36.315Z,0
2019-02-04T04:23:46.024Z,0
2019-02-04T04:24:55.997Z,0
2019-02-04T04:26:05.458Z,0
2019-02-04T04:27:14.917Z,0
2019-02-04T04:28:24.630Z,0
2019-02-04T04:29:34.346Z,0
2019-02-04T04:30:43.798Z,0
2019-02-04T04:31:53.498Z,0
2019-02-04T04:33:03.437Z,0
2019-02-04T04:34:13.219Z,0
2019-02-04T04:35:22.940Z,0
2019-02-04T04:36:32.636Z,0
2019-02-04T04:37:42.386Z,0
2019-02-04T04:38:51.849Z,0
2019-02-04T04:40:01.049Z,0
2019-02-04T04:41:10.873Z,0
2019-02-04T04:42:20.082Z,0
2019-02-04T04:43:29.269Z,0
2019-02-04T04:44:38.969Z,0
2019-02-04T04:45:48.669Z,0
2019-02-04T04:46:58.143Z,0
2019-02-04T04:48:07.587Z,0
2019-02-04T04:49:17.562Z,0
2019-02-04T04:50:27.282Z,0
2019-02-04T04:51:36.750Z,0
2019-02-04T04:52:46.444Z,0
2019-02-04T04:53:56.164Z,0
2019-02-04T04:55:06.149Z,0
2019-02-04T04:56:15.857Z,0
2019-02-04T04:57:25.562Z,0
2019-02-04T04:58:35.270Z,0
2019-02-04T04:59:44.973Z,0
2019-02-04T05:00:54.425Z,0
2019-02-04T05:02:03.629Z,0
2019-02-04T05:03:13.325Z,0
2019-02-04T05:04:23.291Z,0
2019-02-04T05:05:33.032Z,0
2019-02-04T05:06:42.498Z,0
2019-02-04T05:07:51.936Z,0
2019-02-04T05:09:01.379Z,0
2019-02-04T05:10:11.347Z,0
2019-02-04T05:11:21.045Z,0
2019-02-04T05:12:31.015Z,0
2019-02-04T05:13:40.735Z,0
2019-02-04T05:14:50.189Z,0
2019-02-04T05:16:00.140Z,0
2019-02-04T05:17:09.842Z,0
2019-02-04T05:18:19.588Z,0
2019-02-04T05:19:29.056Z,0
2019-02-04T05:20:39.001Z,0
2019-02-04T05:21:48.972Z,0
2019-02-04T05:22:58.426Z,0
2019-02-04T05:24:08.112Z,0
2019-02-04T05:25:18.081Z,0
2019-02-04T05:26:28.030Z,0
2019-02-04T05:27:40.182Z,0
2019-02-04T05:28:50.778Z,0
2019-02-04T05:30:01.702Z,0
2019-02-04T05:31:11.924Z,0
2019-02-04T05:32:22.335Z,0
2019-02-04T05:33:32.061Z,0
2019-02-04T05:34:42.536Z,0
2019-02-04T05:35:52.756Z,0
2019-02-04T05:37:02.738Z,0
2019-02-04T05:38:12.449Z,0
2019-02-04T05:39:22.154Z,0
2019-02-04T05:40:32.211Z,0
2019-02-04T05:41:42.976Z,0
2019-02-04T05:42:52.868Z,0
2019-02-04T05:44:02.579Z,0
2019-02-04T05:45:12.162Z,0
2019-02-04T05:46:21.370Z,0
2019-02-04T05:47:31.342Z,0
2019-02-04T05:48:51.710Z,0
2019-02-04T05:50:01.173Z,0
2019-02-04T05:51:10.893Z,0
2019-02-04T05:52:20.692Z,0
2019-02-04T05:53:29.991Z,0
2019-02-04T05:54:39.954Z,0
2019-02-04T05:55:49.466Z,0
2019-02-04T05:56:59.181Z,0
2019-02-04T05:58:08.643Z,0
2019-02-04T05:59:18.343Z,0
2019-02-04T06:00:28.094Z,0
2019-02-04T06:01:37.799Z,0
2019-02-04T06:02:47.503Z,0
2019-02-04T06:03:57.010Z,0
2019-02-04T06:05:06.467Z,0
2019-02-04T06:06:15.437Z,0
2019-02-04T06:07:24.878Z,0
2019-02-04T06:08:34.839Z,0
2019-02-04T06:09:44.800Z,0
2019-02-04T06:10:54.522Z,0
2019-02-04T06:12:03.741Z,0
2019-02-04T06:13:13.692Z,0
2019-02-04T06:14:23.655Z,0
2019-02-04T06:15:33.136Z,0
2019-02-04T06:16:42.831Z,0
2019-02-04T06:17:52.056Z,0
2019-02-04T06:19:08.275Z,0
2019-02-04T06:20:18.244Z,0
2019-02-04T06:21:27.953Z,0
2019-02-04T06:22:38.040Z,0
2019-02-04T06:23:48.104Z,0
2019-02-04T06:24:58.859Z,0
2019-02-04T06:26:09.502Z,0
2019-02-04T06:27:20.405Z,0
2019-02-04T06:28:32.742Z,0
2019-02-04T06:29:42.942Z,0
2019-02-04T06:30:52.901Z,4
2019-02-04T06:32:02.599Z,4
2019-02-04T06:33:12.057Z,0
2019-02-04T06:34:22.134Z,4
2019-02-04T06:35:31.591Z,4
2019-02-04T06:36:40.803Z,4
2019-02-04T06:37:51.568Z,8
2019-02-04T06:39:01.529Z,8
2019-02-04T06:40:11.236Z,8
2019-02-04T06:41:21.191Z,12
2019-02-04T06:42:31.137Z,8
2019-02-04T06:43:41.114Z,16
2019-02-04T06:44:51.062Z,12
2019-02-04T06:46:00.556Z,16
2019-02-04T06:47:10.025Z,20
2019-02-04T06:48:19.726Z,24
2019-02-04T06:49:29.688Z,28
2019-02-04T06:50:39.395Z,32
2019-02-04T06:51:49.363Z,40
2019-02-04T06:52:58.821Z,48
2019-02-04T06:54:08.520Z,52
2019-02-04T06:55:17.967Z,64
2019-02-04T06:56:27.696Z,72
2019-02-04T06:57:37.659Z,88
2019-02-04T06:58:47.635Z,100
2019-02-04T06:59:57.100Z,116
2019-02-04T07:01:06.566Z,136
2019-02-04T07:02:16.529Z,152
2019-02-04T07:03:26.491Z,172
2019-02-04T07:04:36.442Z,192
2019-02-04T07:05:50.982Z,212
2019-02-04T07:07:00.434Z,236
2019-02-04T07:08:09.881Z,256
2019-02-04T07:09:19.602Z,276
2019-02-04T07:10:29.556Z,304
2019-02-04T07:11:39.517Z,328
2019-02-04T07:12:49.555Z,348
2019-02-04T07:13:59.016Z,368
2019-02-04T07:15:08.998Z,392
2019-02-04T07:16:18.719Z,416
2019-02-04T07:17:28.666Z,436
2019-02-04T07:18:38.367Z,464
2019-02-04T07:19:48.064Z,496
2019-02-04T07:20:58.025Z,536
2019-02-04T07:22:07.729Z,572
2019-02-04T07:23:17.187Z,604
2019-02-04T07:24:26.642Z,628
2019-02-04T07:25:36.802Z,656
2019-02-04T07:26:46.565Z,688
2019-02-04T07:27:56.301Z,724
2019-02-04T07:29:06.065Z,764
2019-02-04T07:30:15.837Z,808
2019-02-04T07:31:25.796Z,852
2019-02-04T07:32:35.504Z,900
2019-02-04T07:33:44.970Z,944
2019-02-04T07:34:54.673Z,996
2019-02-04T07:36:08.128Z,1048
2019-02-04T07:37:18.554Z,1092
2019-02-04T07:38:29.294Z,1132
2019-02-04T07:39:40.161Z,1176
2019-02-04T07:40:50.819Z,1216
2019-02-04T07:42:00.955Z,1252
2019-02-04T07:43:11.315Z,1292
2019-02-04T07:44:21.065Z,1324
2019-02-04T07:45:31.254Z,1360
2019-02-04T07:46:40.965Z,1396
2019-02-04T07:47:50.916Z,1440
2019-02-04T07:49:00.648Z,1496
2019-02-04T07:50:10.362Z,1552
2019-02-04T07:51:20.075Z,1616
2019-02-04T07:52:29.782Z,1692
2019-02-04T07:53:39.480Z,1784
2019-02-04T07:54:49.438Z,1852
2019-02-04T07:55:59.404Z,1900
2019-02-04T07:57:09.099Z,1940
2019-02-04T07:58:19.048Z,1984
2019-02-04T07:59:28.754Z,2032
2019-02-04T08:00:38.238Z,2084
2019-02-04T08:01:47.458Z,2128
2019-02-04T08:02:57.178Z,2176
2019-02-04T08:04:07.146Z,2208
2019-02-04T08:05:17.118Z,2240
2019-02-04T08:06:26.850Z,2268
2019-02-04T08:07:36.561Z,2292
2019-02-04T08:08:46.260Z,2324
2019-02-04T08:09:56.242Z,2352
2019-02-04T08:11:05.986Z,2380
2019-02-04T08:12:15.939Z,2412
2019-02-04T08:13:25.915Z,2452
2019-02-04T08:14:35.623Z,2492
2019-02-04T08:15:45.586Z,2528
2019-02-04T08:16:55.589Z,2576
2019-02-04T08:18:05.305Z,2616
2019-02-04T08:19:15.265Z,2656
2019-02-04T08:20:27.503Z,2688
2019-02-04T08:21:37.229Z,2728
2019-02-04T08:22:47.200Z,2788
2019-02-04T08:23:56.662Z,2852
2019-02-04T08:25:06.115Z,2916
2019-02-04T08:26:16.082Z,2972
2019-02-04T08:27:25.788Z,3028
2019-02-04T08:28:35.761Z,3076
2019-02-04T08:29:45.471Z,3140
2019-02-04T08:30:55.431Z,3192
2019-02-04T08:32:04.905Z,3248
2019-02-04T08:33:14.858Z,3316
2019-02-04T08:34:24.818Z,3380
2019-02-04T08:35:34.846Z,3436
2019-02-04T08:38:50.280Z,3612
2019-02-04T08:40:00.001Z,3684
2019-02-04T08:41:09.479Z,3760
2019-02-04T08:42:19.227Z,3852
2019-02-04T08:43:29.194Z,3960
2019-02-04T08:44:39.183Z,4040
2019-02-04T08:45:48.931Z,4112
2019-02-04T08:46:58.676Z,4172
2019-02-04T08:48:08.678Z,4252
2019-02-04T08:49:18.648Z,4328
2019-02-04T08:50:28.479Z,4384
2019-02-04T08:51:37.727Z,4440
2019-02-04T08:52:47.217Z,4492
2019-02-04T08:53:57.207Z,4528
2019-02-04T08:55:07.242Z,4584
2019-02-04T08:56:16.726Z,4616
2019-02-04T08:57:26.720Z,4624
2019-02-04T08:58:36.443Z,4644
2019-02-04T08:59:45.928Z,4648
2019-02-04T09:00:55.420Z,4652
2019-02-04T09:02:05.183Z,4636
2019-02-04T09:03:14.938Z,4616
2019-02-04T09:04:24.685Z,4612
2019-02-04T09:05:34.412Z,4600
2019-02-04T09:06:44.439Z,4600
2019-02-04T09:07:54.194Z,4596
2019-02-04T09:09:03.919Z,4624
2019-02-04T09:10:14.941Z,4624
2019-02-04T09:11:24.876Z,4620
2019-02-04T09:12:34.608Z,4616
2019-02-04T09:13:44.600Z,4624
2019-02-04T09:14:54.650Z,4624
2019-02-04T09:16:04.526Z,4644
2019-02-04T09:17:14.298Z,4672
2019-02-04T09:18:24.335Z,4700
2019-02-04T09:19:34.410Z,4740
2019-02-04T09:20:44.923Z,4780
2019-02-04T09:21:55.560Z,4812
2019-02-04T09:23:08.987Z,4852
2019-02-04T09:24:19.357Z,4892
2019-02-04T09:25:29.641Z,4928
2019-02-04T09:26:39.821Z,4960
2019-02-04T09:27:49.662Z,4996
2019-02-04T09:28:59.236Z,5032
2019-02-04T09:30:09.343Z,5060
2019-02-04T09:31:19.099Z,5092
2019-02-04T09:32:28.847Z,5132
2019-02-04T09:33:38.574Z,5168
2019-02-04T09:34:48.057Z,5208
2019-02-04T09:35:57.785Z,5260
2019-02-04T09:37:07.512Z,5296
2019-02-04T09:38:17.493Z,5328
2019-02-04T09:39:27.636Z,5352
2019-02-04T09:40:37.708Z,5372
2019-02-04T09:41:47.716Z,5408
2019-02-04T09:42:57.501Z,5440
2019-02-04T09:44:07.220Z,5472
2019-02-04T09:45:17.199Z,5496
2019-02-04T09:46:26.981Z,5512
2019-02-04T09:47:37.000Z,5524
2019-02-04T09:48:47.088Z,5548
2019-02-04T09:49:57.090Z,5588
2019-02-04T09:51:06.818Z,5628
2019-02-04T09:52:16.559Z,5672
2019-02-04T09:53:26.045Z,5724
2019-02-04T09:54:35.785Z,5784
2019-02-04T09:55:45.267Z,5844
2019-02-04T09:56:55.020Z,5884
2019-02-04T09:58:04.526Z,5912
2019-02-04T09:59:14.004Z,5932
2019-02-04T10:00:23.970Z,5948
2019-02-04T10:01:33.425Z,5944
2019-02-04T10:02:43.385Z,5936
2019-02-04T10:03:52.594Z,5932
2019-02-04T10:05:02.053Z,5944
2019-02-04T10:06:12.047Z,5968
2019-02-04T10:07:21.755Z,5992
2019-02-04T10:08:31.456Z,6004
2019-02-04T10:09:41.168Z,6036
2019-02-04T10:10:50.884Z,6072
2019-02-04T10:12:00.835Z,6116
2019-02-04T10:13:10.552Z,6164
2019-02-04T10:14:20.258Z,6208
2019-02-04T10:15:30.317Z,6240
2019-02-04T10:16:40.193Z,6260
2019-02-04T10:17:49.996Z,6280
2019-02-04T10:18:59.933Z,6308
2019-02-04T10:20:10.087Z,6348
2019-02-04T10:21:20.243Z,6392
2019-02-04T10:22:30.108Z,6420
2019-02-04T10:23:40.159Z,6460
2019-02-04T10:24:49.983Z,6484
2019-02-04T10:25:59.820Z,6512
2019-02-04T10:27:09.878Z,6544
2019-02-04T10:28:20.049Z,6552
2019-02-04T10:29:29.899Z,6560
2019-02-04T10:30:39.932Z,6572
2019-02-04T10:31:49.998Z,6584
2019-02-04T10:33:00.216Z,6596
2019-02-04T10:34:10.757Z,6604
2019-02-04T10:35:24.910Z,6616
2019-02-04T10:36:35.527Z,6616
2019-02-04T10:37:46.245Z,6632
2019-02-04T10:38:56.362Z,6644
2019-02-04T10:40:06.733Z,6644
2019-02-04T10:41:16.857Z,6632
2019-02-04T10:42:26.885Z,6628
2019-02-04T10:43:37.148Z,6628
2019-02-04T10:44:47.284Z,6616
2019-02-04T10:45:57.527Z,6604
2019-02-04T10:47:07.366Z,6584
2019-02-04T10:48:17.590Z,6568
2019-02-04T10:49:27.819Z,6572
2019-02-04T10:50:50.638Z,6612
2019-02-04T10:52:00.453Z,6664
2019-02-04T10:53:09.968Z,6728
2019-02-04T10:54:19.889Z,6780
2019-02-04T10:55:29.795Z,6824
2019-02-04T10:56:40.052Z,6868
2019-02-04T10:57:49.932Z,6920
2019-02-04T10:59:00.006Z,6964
2019-02-04T11:00:09.817Z,6996
2019-02-04T11:01:19.424Z,7004
2019-02-04T11:02:29.149Z,7016
2019-02-04T11:03:39.119Z,7028
2019-02-04T11:04:49.199Z,7056
2019-02-04T11:05:59.340Z,7092
2019-02-04T11:07:09.576Z,7124
2019-02-04T11:08:19.545Z,7148
2019-02-04T11:09:29.810Z,7164
2019-02-04T11:10:39.674Z,7184
2019-02-04T11:11:49.577Z,7200
2019-02-04T11:12:59.595Z,7208
2019-02-04T11:14:09.547Z,7216
2019-02-04T11:15:19.811Z,7220
2019-02-04T11:16:29.966Z,7240
2019-02-04T11:17:39.789Z,7236
2019-02-04T11:18:49.688Z,7212
2019-02-04T11:19:59.836Z,7188
2019-02-04T11:21:10.187Z,7164
2019-02-04T11:22:20.391Z,7128
2019-02-04T11:23:33.861Z,7100
2019-02-04T11:24:44.936Z,7080
2019-02-04T11:25:55.354Z,7052
2019-02-04T11:27:05.652Z,7000
2019-02-04T11:28:16.050Z,6944
2019-02-04T11:29:26.097Z,6884
2019-02-04T11:30:36.174Z,6836
2019-02-04T11:31:46.266Z,6784
2019-02-04T11:32:56.603Z,6720
2019-02-04T11:34:06.673Z,6664
2019-02-04T11:35:16.811Z,6608
2019-02-04T11:36:26.899Z,6564
2019-02-04T11:37:37.063Z,6536
2019-02-04T11:38:47.293Z,6536
2019-02-04T11:39:57.526Z,6584
2019-02-04T11:41:07.583Z,6644
2019-02-04T11:42:17.676Z,6724
2019-02-04T11:43:27.540Z,6828
2019-02-04T11:44:37.386Z,6960
2019-02-04T11:45:47.554Z,7076
2019-02-04T11:46:57.425Z,7176
2019-02-04T11:48:07.407Z,7240
2019-02-04T11:49:17.148Z,7260
2019-02-04T11:50:26.629Z,7260
2019-02-04T11:51:36.350Z,7240
2019-02-04T11:52:46.340Z,7240
2019-02-04T11:53:55.919Z,7212
2019-02-04T11:55:05.402Z,7180
2019-02-04T11:56:15.170Z,7152
2019-02-04T11:57:25.151Z,7128
2019-02-04T11:58:35.108Z,7108
2019-02-04T11:59:45.074Z,7100
2019-02-04T12:00:55.040Z,7072
2019-02-04T12:02:04.500Z,7044
2019-02-04T12:03:14.515Z,7012
2019-02-04T12:04:24.271Z,6960
2019-02-04T12:05:33.983Z,6904
2019-02-04T12:06:43.197Z,6872
2019-02-04T12:07:52.784Z,6840
2019-02-04T12:09:02.499Z,6812
2019-02-04T12:10:11.945Z,6792
2019-02-04T12:11:21.912Z,6800
2019-02-04T12:12:31.901Z,6832
2019-02-04T12:13:41.884Z,6868
2019-02-04T12:14:51.341Z,6908
2019-02-04T12:16:00.838Z,6956
2019-02-04T12:17:10.414Z,7024
2019-02-04T12:18:20.370Z,7076
2019-02-04T12:19:30.155Z,7124
2019-02-04T12:20:42.440Z,7144
2019-02-04T12:21:52.168Z,7132
2019-02-04T12:23:02.120Z,7112
2019-02-04T12:24:11.584Z,7096
2019-02-04T12:27:45.082Z,7100
2019-02-04T12:28:57.760Z,7096
2019-02-04T12:30:08.348Z,7096
2019-02-04T12:31:18.774Z,7084
2019-02-04T12:32:28.469Z,7064
2019-02-04T12:33:38.628Z,7024
2019-02-04T12:34:48.311Z,6992
2019-02-04T12:35:58.258Z,6952
2019-02-04T12:37:10.078Z,6892
2019-02-04T12:38:19.695Z,6840
2019-02-04T12:39:29.663Z,6792
2019-02-04T12:40:39.365Z,6752
2019-02-04T12:41:50.681Z,6736
2019-02-04T12:43:00.301Z,6708
2019-02-04T12:44:09.763Z,6640
2019-02-04T12:45:19.218Z,6576
2019-02-04T12:46:28.675Z,6492
2019-02-04T12:47:38.655Z,6408
2019-02-04T12:48:48.371Z,6324
2019-02-04T12:49:58.075Z,6216
2019-02-04T12:51:07.546Z,6076
2019-02-04T12:52:17.275Z,5916
2019-02-04T12:53:26.983Z,5764
2019-02-04T12:54:36.942Z,5632
2019-02-04T12:55:46.981Z,5512
2019-02-04T12:56:56.211Z,5424
2019-02-04T12:58:05.925Z,5380
2019-02-04T12:59:15.872Z,5380
2019-02-04T13:00:25.854Z,5420
2019-02-04T13:01:35.611Z,5456
2019-02-04T13:02:45.560Z,5472
2019-02-04T13:03:55.062Z,5480
2019-02-04T13:05:05.158Z,5480
2019-02-04T13:06:15.124Z,5468
2019-02-04T13:07:24.567Z,5452
2019-02-04T13:08:34.524Z,5432
2019-02-04T13:09:44.489Z,5412
2019-02-04T13:10:53.949Z,5396
2019-02-04T13:12:03.694Z,5384
2019-02-04T13:13:13.137Z,5368
2019-02-04T13:14:22.971Z,5344
2019-02-04T13:15:32.211Z,5316
2019-02-04T13:16:41.918Z,5292
2019-02-04T13:17:51.876Z,5272
2019-02-04T13:19:01.076Z,5268
2019-02-04T13:20:10.526Z,5260
2019-02-04T13:21:20.230Z,5236
2019-02-04T13:22:30.212Z,5212
2019-02-04T13:23:39.686Z,5172
2019-02-04T13:24:49.652Z,5140
2019-02-04T13:25:59.622Z,5080
2019-02-04T13:27:09.333Z,5016
2019-02-04T13:28:19.883Z,4976
2019-02-04T13:29:29.894Z,4920
2019-02-04T13:30:39.454Z,4852
2019-02-04T13:31:49.185Z,4788
2019-02-04T13:32:58.904Z,4724
2019-02-04T13:34:08.878Z,4644
2019-02-04T13:35:18.578Z,4580
2019-02-04T13:36:28.545Z,4532
2019-02-04T13:37:38.753Z,4512
2019-02-04T13:38:48.758Z,4516
2019-02-04T13:39:58.273Z,4524
2019-02-04T13:41:17.731Z,4516
2019-02-04T13:42:27.602Z,4492
2019-02-04T13:43:37.323Z,4460
2019-02-04T13:44:47.049Z,4416
2019-02-04T13:45:56.510Z,4396
2019-02-04T13:47:08.133Z,4360
2019-02-04T13:48:17.843Z,4304
2019-02-04T13:49:27.553Z,4260
2019-02-04T13:50:37.273Z,4232
2019-02-04T13:51:59.443Z,4184
2019-02-04T13:53:09.284Z,4116
2019-02-04T13:54:19.012Z,4052
2019-02-04T13:55:29.007Z,3988
2019-02-04T13:56:38.976Z,3944
2019-02-04T13:57:48.442Z,3892
2019-02-04T13:58:57.925Z,3824
2019-02-04T14:00:07.632Z,3732
2019-02-04T14:01:17.610Z,3648
2019-02-04T14:02:27.574Z,3560
2019-02-04T14:03:37.290Z,3492
2019-02-04T14:04:47.003Z,3452
2019-02-04T14:05:56.957Z,3436
2019-02-04T14:07:06.690Z,3424
2019-02-04T14:08:16.156Z,3404
2019-02-04T14:09:26.137Z,3368
2019-02-04T14:10:35.611Z,3320
2019-02-04T14:11:45.332Z,3252
2019-02-04T14:12:54.810Z,3172
2019-02-04T14:14:04.527Z,3076
2019-02-04T14:15:13.985Z,2972
2019-02-04T14:16:23.686Z,2884
2019-02-04T14:17:33.379Z,2816
2019-02-04T14:18:43.088Z,2772
2019-02-04T14:19:52.542Z,2740
2019-02-04T14:21:02.249Z,2704
2019-02-04T14:22:16.600Z,2648
2019-02-04T14:23:30.082Z,2592
2019-02-04T14:24:40.985Z,2516
2019-02-04T14:25:51.688Z,2420
2019-02-04T14:27:02.019Z,2320
2019-02-04T14:28:13.000Z,2220
2019-02-04T14:29:22.784Z,2128
2019-02-04T14:30:32.503Z,2044
2019-02-04T14:31:42.645Z,1992
2019-02-04T14:32:52.604Z,1956
2019-02-04T14:34:06.497Z,1932
2019-02-04T14:35:16.531Z,1904
2019-02-04T14:36:26.634Z,1868
2019-02-04T14:37:35.874Z,1832
2019-02-04T14:38:45.838Z,1832
2019-02-04T14:39:55.813Z,1860
2019-02-04T14:41:05.048Z,1896
2019-02-04T14:42:14.507Z,1948
2019-02-04T14:43:24.470Z,1984
2019-02-04T14:44:34.170Z,2016
2019-02-04T14:45:45.791Z,2028
2019-02-04T14:46:55.528Z,2016
2019-02-04T14:48:12.917Z,1988
2019-02-04T14:49:22.882Z,1940
2019-02-04T14:50:32.613Z,1884
2019-02-04T14:51:42.568Z,1832
2019-02-04T14:52:52.519Z,1772
2019-02-04T14:54:01.981Z,1696
2019-02-04T14:55:12.028Z,1648
2019-02-04T14:56:21.848Z,1676
2019-02-04T14:57:31.233Z,1680
2019-02-04T14:58:40.952Z,1648
2019-02-04T14:59:50.906Z,1600
2019-02-04T15:01:02.461Z,1552
2019-02-04T15:02:12.243Z,1504
2019-02-04T15:03:27.562Z,1456
2019-02-04T15:04:38.145Z,1444
2019-02-04T15:05:48.863Z,1448
2019-02-04T15:06:59.476Z,1424
2019-02-04T15:08:09.651Z,1388
2019-02-04T15:09:22.245Z,1332
2019-02-04T15:10:32.089Z,1220
2019-02-04T15:11:42.035Z,1108
2019-02-04T15:12:51.506Z,1056
2019-02-04T15:14:01.244Z,1092
2019-02-04T15:15:11.197Z,1068
2019-02-04T15:16:24.327Z,984
2019-02-04T15:17:34.068Z,892
2019-02-04T15:18:44.180Z,820
2019-02-04T15:19:53.904Z,812
2019-02-04T15:21:03.860Z,812
2019-02-04T15:22:13.582Z,784
2019-02-04T15:23:23.544Z,724
2019-02-04T15:24:33.010Z,656
2019-02-04T15:25:42.561Z,604
2019-02-04T15:26:52.541Z,588
2019-02-04T15:28:01.773Z,564
2019-02-04T15:29:11.530Z,536
2019-02-04T15:30:20.721Z,532
2019-02-04T15:31:30.691Z,532
2019-02-04T15:32:40.592Z,512
2019-02-04T15:33:50.436Z,468
2019-02-04T15:35:11.246Z,420
2019-02-04T15:36:20.915Z,392
2019-02-04T15:37:30.657Z,368
2019-02-04T15:38:39.962Z,344
2019-02-04T15:39:49.790Z,324
2019-02-04T15:40:59.689Z,296
2019-02-04T15:42:09.684Z,268
2019-02-04T15:43:19.356Z,248
2019-02-04T15:44:29.172Z,244
2019-02-04T15:45:39.524Z,240
2019-02-04T15:46:49.955Z,224
2019-02-04T15:48:01.078Z,204
2019-02-04T15:49:11.677Z,184
2019-02-04T15:50:21.884Z,168
2019-02-04T15:51:32.143Z,152
2019-02-04T15:52:52.652Z,148
2019-02-04T15:54:02.883Z,140
2019-02-04T15:55:12.948Z,136
2019-02-04T15:56:22.711Z,128
2019-02-04T15:57:32.181Z,116
2019-02-04T15:58:42.185Z,116
2019-02-04T15:59:52.138Z,116
2019-02-04T16:01:04.582Z,108
2019-02-04T16:02:14.601Z,96
2019-02-04T16:03:24.073Z,92
2019-02-04T16:04:33.786Z,88
2019-02-04T16:05:43.261Z,80
2019-02-04T16:06:53.240Z,76
2019-02-04T16:08:03.190Z,72
2019-02-04T16:09:12.925Z,64
2019-02-04T16:10:22.639Z,56
2019-02-04T16:11:32.337Z,52
2019-02-04T16:12:41.997Z,48
2019-02-04T16:13:55.435Z,44
2019-02-04T16:15:05.152Z,40
2019-02-04T16:16:14.627Z,36
2019-02-04T16:17:24.332Z,32
2019-02-04T16:18:34.287Z,28
2019-02-04T16:19:44.237Z,24
2019-02-04T16:20:53.737Z,24
2019-02-04T16:22:03.441Z,20